createdAt,value
2022-09-20T00:00:03.312Z,1.50
2022-09-20T00:05:10.197Z,1.60
2022-09-20T00:10:14.225Z,1.50
2022-09-20T00:15:17.639Z,1.50
2022-09-20T00:20:22.383Z,1.70
2022-09-20T00:25:25.939Z,1.50
2022-09-20T00:30:29.579Z,1.70
2022-09-20T00:35:34.314Z,1.83
2022-09-20T00:40:37.701Z,1.10
2022-09-20T00:45:41.076Z,1.60
2022-09-20T00:50:47.202Z,1.73
2022-09-20T00:55:51.831Z,1.80
2022-09-20T01:00:56.599Z,1.30
2022-09-20T01:06:02.919Z,1.47
2022-09-20T01:11:06.518Z,1.80
2022-09-20T01:16:10.672Z,1.53
2022-09-20T01:21:16.074Z,1.50
2022-09-20T01:26:26.283Z,1.37
2022-09-20T01:31:33.210Z,1.40
2022-09-20T01:36:40.375Z,1.90
2022-09-20T01:41:46.017Z,1.30
2022-09-20T01:46:54.310Z,1.50
2022-09-20T01:52:10.749Z,1.60
2022-09-20T01:57:47.339Z,1.57
2022-09-20T02:03:14.863Z,1.87
2022-09-20T02:08:39.393Z,2.47
2022-09-20T02:13:57.425Z,2.47
2022-09-20T02:19:13.446Z,2.80
2022-09-20T02:24:23.328Z,2.60
2022-09-20T02:29:32.920Z,2.93
2022-09-20T02:34:54.188Z,2.63
2022-09-20T02:40:03.573Z,2.60
2022-09-20T02:45:09.515Z,3.00
2022-09-20T02:50:16.288Z,3.10
2022-09-20T02:55:25.379Z,3.10
2022-09-20T03:00:30.224Z,3.30
2022-09-20T03:05:37.980Z,3.30
2022-09-20T03:10:46.565Z,4.60
2022-09-20T03:15:56.642Z,3.93
2022-09-20T03:21:02.868Z,4.10
2022-09-20T03:26:17.599Z,4.00
2022-09-20T03:31:25.960Z,3.23
2022-09-20T03:36:42.869Z,3.73
2022-09-20T03:41:52.188Z,3.57
2022-09-20T03:47:02.339Z,3.43
2022-09-20T03:52:09.640Z,3.73
2022-09-20T03:57:27.299Z,4.47
2022-09-20T04:02:37.958Z,4.17
2022-09-20T04:07:49.124Z,4.13
2022-09-20T04:13:04.443Z,6.33
2022-09-20T04:18:10.748Z,3.90
2022-09-20T04:23:19.263Z,5.27
2022-09-20T04:28:28.996Z,4.43
2022-09-20T04:33:36.381Z,5.80
2022-09-20T04:38:40.000Z,5.37
2022-09-20T04:44:01.895Z,4.77
2022-09-20T04:49:26.200Z,4.73
2022-09-20T04:54:56.639Z,5.23
2022-09-20T05:00:07.130Z,4.90
2022-09-20T05:05:38.031Z,5.77
2022-09-20T05:11:00.160Z,6.13
2022-09-20T05:16:06.865Z,6.13
2022-09-20T05:21:13.441Z,5.40
2022-09-20T05:26:22.794Z,5.70
2022-09-20T05:31:33.964Z,5.60
2022-09-20T05:36:44.308Z,5.97
2022-09-20T05:41:52.580Z,5.90
2022-09-20T05:47:01.546Z,5.73
2022-09-20T05:52:15.731Z,7.27
2022-09-20T05:57:25.264Z,5.47
2022-09-20T06:02:39.897Z,5.67
2022-09-20T06:08:08.701Z,6.20
2022-09-20T06:13:21.610Z,5.93
2022-09-20T06:18:28.627Z,8.13
2022-09-20T06:23:32.526Z,8.83
2022-09-20T06:28:36.670Z,6.43
2022-09-20T06:33:46.484Z,5.33
2022-09-20T06:39:13.461Z,5.53
2022-09-20T06:44:16.856Z,5.53
2022-09-20T06:49:21.640Z,5.33
2022-09-20T06:54:27.271Z,5.70
2022-09-20T06:59:30.644Z,5.80
2022-09-20T07:04:35.764Z,5.60
2022-09-20T07:09:39.091Z,6.23
2022-09-20T07:14:43.167Z,5.80
2022-09-20T07:19:47.981Z,5.50
2022-09-20T07:24:51.329Z,4.97
2022-09-20T07:29:55.186Z,5.00
2022-09-20T07:35:00.220Z,4.70
2022-09-20T07:40:04.013Z,4.30
2022-09-20T07:45:08.075Z,4.80
2022-09-20T07:50:12.824Z,5.23
2022-09-20T07:55:16.345Z,4.10
2022-09-20T08:00:19.751Z,3.80
2022-09-20T08:05:24.455Z,3.33
2022-09-20T08:10:28.132Z,3.67
2022-09-20T08:15:31.880Z,3.20
2022-09-20T08:20:38.322Z,3.40
2022-09-20T08:25:41.676Z,3.50
2022-09-20T08:30:45.158Z,4.37
2022-09-20T08:35:51.101Z,2.80
2022-09-20T08:40:55.365Z,3.23
2022-09-20T08:46:05.417Z,4.13
2022-09-20T08:51:13.094Z,2.10
2022-09-20T08:56:16.590Z,1.80
2022-09-20T09:01:22.110Z,2.43
2022-09-20T09:06:27.146Z,2.27
2022-09-20T09:11:30.580Z,3.17
2022-09-20T09:16:36.460Z,2.53
2022-09-20T09:21:44.241Z,2.57
2022-09-20T09:26:47.747Z,2.20
2022-09-20T09:31:52.514Z,2.47
2022-09-20T09:36:57.309Z,2.53
2022-09-20T09:42:01.419Z,2.10
2022-09-20T09:47:04.919Z,2.40
2022-09-20T09:52:14.470Z,2.30
2022-09-20T09:57:23.417Z,2.57
2022-09-20T10:02:35.296Z,1.70
2022-09-20T10:07:43.484Z,2.00
2022-09-20T10:12:54.153Z,2.10
2022-09-20T10:18:03.152Z,1.80
2022-09-20T10:23:58.577Z,2.07
2022-09-20T10:28:50.477Z,1.47
2022-09-20T10:34:09.416Z,1.80
2022-09-20T10:39:18.094Z,1.60
2022-09-20T10:44:37.539Z,2.17
2022-09-20T10:49:47.238Z,2.67
2022-09-20T10:55:03.212Z,1.47
2022-09-20T11:00:16.431Z,1.67
2022-09-20T11:05:25.519Z,2.57
2022-09-20T11:10:33.574Z,1.57
2022-09-20T11:15:38.319Z,1.87
2022-09-20T11:20:44.336Z,1.47
2022-09-20T11:25:51.878Z,1.20
2022-09-20T11:30:58.207Z,1.33
2022-09-20T11:36:03.464Z,1.60
2022-09-20T11:41:12.980Z,1.50
2022-09-20T11:46:20.666Z,1.20
2022-09-20T11:51:38.836Z,1.30
2022-09-20T11:56:50.888Z,1.27
2022-09-20T12:01:56.437Z,1.43
2022-09-20T12:07:07.418Z,1.40
2022-09-20T12:12:27.955Z,1.63
2022-09-20T12:17:58.818Z,1.50
2022-09-20T12:23:17.222Z,1.40
2022-09-20T12:28:34.242Z,1.23
2022-09-20T12:33:56.618Z,1.50
2022-09-20T12:39:05.777Z,1.30
2022-09-20T12:44:24.711Z,1.23
2022-09-20T12:49:56.706Z,1.17
2022-09-20T12:55:04.648Z,1.40
2022-09-20T13:00:25.827Z,1.33
2022-09-20T13:05:39.026Z,1.40
2022-09-20T13:10:44.770Z,1.83
2022-09-20T13:15:50.318Z,1.77
2022-09-20T13:20:56.048Z,1.50
2022-09-20T13:25:59.702Z,1.30
2022-09-20T13:31:30.303Z,1.00
2022-09-20T13:36:36.181Z,1.10
2022-09-20T13:41:39.656Z,0.93
2022-09-20T13:46:44.795Z,0.97
2022-09-20T13:51:49.838Z,1.10
2022-09-20T13:56:53.512Z,1.00
2022-09-20T14:01:57.109Z,0.83
2022-09-20T14:07:02.542Z,0.80
2022-09-20T14:12:06.654Z,0.80
2022-09-20T14:17:10.855Z,1.10
2022-09-20T14:22:18.991Z,1.00
2022-09-20T14:27:23.132Z,1.47
2022-09-20T14:32:28.951Z,1.20
2022-09-20T14:37:34.448Z,1.10
2022-09-20T14:42:42.205Z,1.50
2022-09-20T14:47:54.382Z,1.33
2022-09-20T14:53:03.715Z,1.13
2022-09-20T14:58:09.036Z,1.20
2022-09-20T15:03:15.010Z,1.00
2022-09-20T15:08:20.435Z,1.10
2022-09-20T15:13:23.846Z,1.07
2022-09-20T15:18:28.689Z,1.10
2022-09-20T15:23:33.431Z,1.33
2022-09-20T15:28:36.833Z,1.20
2022-09-20T15:33:40.298Z,1.20
2022-09-20T15:38:45.718Z,1.50
2022-09-20T15:43:49.452Z,1.53
2022-09-20T15:48:52.811Z,1.20
2022-09-20T15:53:58.327Z,2.17
2022-09-20T15:59:02.345Z,1.93
2022-09-20T16:04:06.635Z,1.93
2022-09-20T16:09:11.985Z,2.00
2022-09-20T16:14:15.723Z,1.23
2022-09-20T16:19:20.760Z,1.63
2022-09-20T16:24:27.019Z,4.10
2022-09-20T16:29:30.682Z,1.40
2022-09-20T16:34:34.885Z,1.40
2022-09-20T16:39:40.960Z,1.57
2022-09-20T16:44:44.417Z,3.73
2022-09-20T16:49:47.960Z,0.93
2022-09-20T16:54:52.700Z,1.60
2022-09-20T16:59:56.125Z,1.20
2022-09-20T17:04:59.554Z,1.20
2022-09-20T17:10:04.311Z,2.10
2022-09-20T17:15:08.375Z,2.60
2022-09-20T17:20:13.195Z,2.50
2022-09-20T17:25:17.833Z,2.53
2022-09-20T17:30:21.427Z,1.90
2022-09-20T17:35:24.816Z,2.17
2022-09-20T17:40:29.639Z,2.37
2022-09-20T17:45:34.207Z,2.97
2022-09-20T17:50:37.567Z,2.57
2022-09-20T17:55:42.343Z,2.97
2022-09-20T18:00:45.817Z,3.00
2022-09-20T18:05:49.460Z,4.70
2022-09-20T18:10:58.811Z,2.80
2022-09-20T18:16:02.283Z,3.73
2022-09-20T18:21:10.656Z,2.73
2022-09-20T18:26:25.953Z,4.40
2022-09-20T18:31:32.391Z,2.27
2022-09-20T18:36:36.705Z,3.17
2022-09-20T18:41:44.136Z,3.07
2022-09-20T18:46:47.798Z,2.30
2022-09-20T18:51:53.083Z,2.23
2022-09-20T18:56:58.248Z,1.90
2022-09-20T19:02:18.753Z,2.03
2022-09-20T19:07:26.943Z,2.23
2022-09-20T19:12:35.608Z,2.30
2022-09-20T19:17:45.031Z,2.77
2022-09-20T19:22:52.436Z,2.80
2022-09-20T19:27:57.872Z,1.80
2022-09-20T19:33:02.872Z,1.70
2022-09-20T19:38:15.520Z,1.80
2022-09-20T19:43:35.387Z,2.23
2022-09-20T19:48:40.267Z,2.50
2022-09-20T19:53:44.275Z,2.47
2022-09-20T19:58:53.062Z,1.73
2022-09-20T20:03:56.712Z,1.80
2022-09-20T20:09:06.188Z,1.57
2022-09-20T20:14:16.136Z,1.50
2022-09-20T20:19:33.118Z,1.50
2022-09-20T20:24:38.728Z,1.80
2022-09-20T20:29:46.149Z,1.50
2022-09-20T20:34:49.646Z,1.53
2022-09-20T20:39:54.529Z,2.07
2022-09-20T20:44:59.343Z,2.93
2022-09-20T20:50:04.032Z,1.70
2022-09-20T20:55:08.242Z,1.30
2022-09-20T21:00:13.704Z,1.40
2022-09-20T21:05:17.459Z,1.77
2022-09-20T21:10:21.878Z,1.27
2022-09-20T21:15:28.085Z,1.53
2022-09-20T21:20:31.702Z,2.13
2022-09-20T21:25:35.027Z,1.60
2022-09-20T21:30:39.979Z,1.53
2022-09-20T21:35:43.329Z,1.67
2022-09-20T21:40:46.774Z,1.23
2022-09-20T21:45:51.643Z,1.40
2022-09-20T21:51:00.826Z,1.67
2022-09-20T21:56:05.382Z,1.83
2022-09-20T22:01:11.729Z,1.50
2022-09-20T22:06:17.351Z,1.80
2022-09-20T22:11:22.053Z,1.53
2022-09-20T22:16:28.924Z,2.30
2022-09-20T22:21:33.523Z,2.50
2022-09-20T22:26:37.713Z,2.40
2022-09-20T22:31:45.298Z,2.03
2022-09-20T22:36:49.082Z,1.90
2022-09-20T22:41:52.547Z,1.50
2022-09-20T22:46:57.331Z,1.50
2022-09-20T22:52:00.648Z,2.40
2022-09-20T22:57:03.956Z,2.13
2022-09-20T23:02:09.302Z,1.93
2022-09-20T23:07:12.816Z,2.67
2022-09-20T23:12:16.168Z,1.77
2022-09-20T23:17:20.902Z,2.10
2022-09-20T23:22:24.303Z,2.00
2022-09-20T23:27:27.575Z,1.80
2022-09-20T23:32:32.413Z,1.70
2022-09-20T23:37:35.798Z,2.67
2022-09-20T23:42:39.195Z,2.63
2022-09-20T23:47:43.939Z,1.50
2022-09-20T23:52:47.341Z,1.60
2022-09-20T23:57:56.019Z,1.33
